createdAt,value
2022-12-31T00:00:25.591Z,5.97
2022-12-31T00:02:52.864Z,7.37
2022-12-31T00:05:20.079Z,5.80
2022-12-31T00:07:47.213Z,11.23
2022-12-31T00:10:14.440Z,9.13
2022-12-31T00:12:41.580Z,9.97
2022-12-31T00:15:08.790Z,8.53
2022-12-31T00:17:36.049Z,14.63
2022-12-31T00:20:03.267Z,13.00
2022-12-31T00:22:30.399Z,13.90
2022-12-31T00:24:57.595Z,5.90
2022-12-31T00:27:24.776Z,18.10
2022-12-31T00:29:51.887Z,14.27
2022-12-31T00:32:19.203Z,16.33
2022-12-31T00:34:46.324Z,17.40
2022-12-31T00:37:13.452Z,17.97
2022-12-31T00:39:40.725Z,17.43
2022-12-31T00:42:07.982Z,17.37
2022-12-31T00:44:35.187Z,15.13
2022-12-31T00:47:02.387Z,18.27
2022-12-31T00:49:29.576Z,13.13
2022-12-31T00:51:56.768Z,16.93
2022-12-31T00:54:23.973Z,15.17
2022-12-31T00:56:51.230Z,22.40
2022-12-31T00:59:18.372Z,13.00
2022-12-31T01:01:45.811Z,21.30
2022-12-31T01:04:18.300Z,19.53
2022-12-31T01:06:46.184Z,16.90
2022-12-31T01:09:14.768Z,18.13
2022-12-31T01:11:42.052Z,16.80
2022-12-31T01:14:11.302Z,18.87
2022-12-31T01:16:45.765Z,19.63
2022-12-31T01:19:14.086Z,18.00
2022-12-31T01:21:41.888Z,19.77
2022-12-31T01:24:09.712Z,23.43
2022-12-31T01:26:37.289Z,16.93
2022-12-31T01:29:05.498Z,16.47
2022-12-31T01:31:34.159Z,18.67
2022-12-31T01:34:01.380Z,20.83
2022-12-31T01:36:30.356Z,14.33
2022-12-31T01:38:59.033Z,20.77
2022-12-31T01:41:27.801Z,18.77
2022-12-31T01:43:56.385Z,13.47
2022-12-31T01:46:41.942Z,19.27
2022-12-31T01:49:19.694Z,17.40
2022-12-31T01:51:49.700Z,18.83
2022-12-31T01:54:17.624Z,16.53
2022-12-31T01:56:46.105Z,17.43
2022-12-31T01:59:13.751Z,14.47
2022-12-31T02:01:40.978Z,20.53
2022-12-31T02:04:12.720Z,22.23
2022-12-31T02:06:58.192Z,24.87
2022-12-31T02:09:25.383Z,16.30
2022-12-31T02:11:52.688Z,19.67
2022-12-31T02:14:24.502Z,24.80
2022-12-31T02:16:51.598Z,15.27
2022-12-31T02:19:37.689Z,18.90
2022-12-31T02:22:31.662Z,21.97
2022-12-31T02:24:58.939Z,23.00
2022-12-31T02:27:44.497Z,21.43
2022-12-31T02:30:11.755Z,20.80
2022-12-31T02:32:48.039Z,21.63
2022-12-31T02:35:27.492Z,23.97
2022-12-31T02:37:59.412Z,26.93
2022-12-31T02:40:26.653Z,23.80
2022-12-31T02:42:55.805Z,26.23
2022-12-31T02:45:27.885Z,31.43
2022-12-31T02:48:11.518Z,27.47
2022-12-31T02:50:55.478Z,27.67
2022-12-31T02:53:25.970Z,27.33
2022-12-31T02:55:56.265Z,23.93
2022-12-31T02:59:02.456Z,28.63
2022-12-31T03:01:52.576Z,29.07
2022-12-31T03:04:32.431Z,23.90
2022-12-31T03:07:02.585Z,28.93
2022-12-31T03:09:29.709Z,25.33
2022-12-31T03:12:15.413Z,27.50
2022-12-31T03:14:42.637Z,23.00
2022-12-31T03:17:09.779Z,27.93
2022-12-31T03:20:15.413Z,24.00
2022-12-31T03:22:43.554Z,29.60
2022-12-31T03:25:31.209Z,22.20
2022-12-31T03:27:58.612Z,23.43
2022-12-31T03:30:26.670Z,25.87
2022-12-31T03:32:56.184Z,28.70
2022-12-31T03:35:24.362Z,28.43
2022-12-31T03:37:52.389Z,29.10
2022-12-31T03:40:21.158Z,27.03
2022-12-31T03:42:48.356Z,24.77
2022-12-31T03:45:15.944Z,26.03
2022-12-31T03:47:43.432Z,24.37
2022-12-31T03:50:11.656Z,23.10
2022-12-31T03:52:39.005Z,25.00
2022-12-31T03:55:06.532Z,24.73
2022-12-31T03:57:33.867Z,22.47
2022-12-31T04:00:01.108Z,27.90
2022-12-31T04:02:29.633Z,25.20
2022-12-31T04:04:56.966Z,23.73
2022-12-31T04:07:24.231Z,25.33
2022-12-31T04:09:51.379Z,23.63
2022-12-31T04:12:18.553Z,24.50
2022-12-31T04:14:45.689Z,22.33
2022-12-31T04:17:12.804Z,24.60
2022-12-31T04:19:39.944Z,23.77
2022-12-31T04:22:07.261Z,22.43
2022-12-31T04:24:34.433Z,20.37
2022-12-31T04:27:07.330Z,21.70
2022-12-31T04:29:35.224Z,28.10
2022-12-31T04:32:02.532Z,20.93
2022-12-31T04:34:29.704Z,27.17
2022-12-31T04:36:56.965Z,22.60
2022-12-31T04:39:24.479Z,21.90
2022-12-31T04:41:51.870Z,25.67
2022-12-31T04:44:19.526Z,22.67
2022-12-31T04:46:46.703Z,28.80
2022-12-31T04:49:14.014Z,23.30
2022-12-31T04:51:41.313Z,21.20
2022-12-31T04:54:08.476Z,25.73
2022-12-31T04:56:36.698Z,22.57
2022-12-31T04:59:05.072Z,24.30
2022-12-31T05:01:33.052Z,27.15
2022-12-31T05:04:00.369Z,26.70
2022-12-31T05:06:27.601Z,22.53
2022-12-31T05:08:54.913Z,18.77
2022-12-31T05:11:22.267Z,19.47
2022-12-31T05:13:49.501Z,24.10
2022-12-31T05:16:16.728Z,20.60
2022-12-31T05:18:43.940Z,26.90
2022-12-31T05:21:12.189Z,28.43
2022-12-31T05:23:39.351Z,23.03
2022-12-31T05:26:06.511Z,20.43
2022-12-31T05:28:33.632Z,25.33
2022-12-31T05:31:00.854Z,23.90
2022-12-31T05:33:28.058Z,24.23
2022-12-31T05:35:57.846Z,22.80
2022-12-31T05:38:25.465Z,18.27
2022-12-31T05:41:02.491Z,23.30
2022-12-31T05:43:29.781Z,22.73
2022-12-31T05:45:57.130Z,19.10
2022-12-31T05:48:24.464Z,23.43
2022-12-31T05:50:51.652Z,22.73
2022-12-31T05:53:18.864Z,23.80
2022-12-31T05:55:47.253Z,22.10
2022-12-31T05:58:15.566Z,26.47
2022-12-31T06:00:42.743Z,24.63
2022-12-31T06:03:10.192Z,20.43
2022-12-31T06:05:40.023Z,25.33
2022-12-31T06:08:07.155Z,22.87
2022-12-31T06:10:34.325Z,25.53
2022-12-31T06:13:01.518Z,31.40
2022-12-31T06:15:28.625Z,25.27
2022-12-31T06:17:55.846Z,29.13
2022-12-31T06:20:23.025Z,27.60
2022-12-31T06:22:50.174Z,27.90
2022-12-31T06:25:17.379Z,30.00
2022-12-31T06:27:44.524Z,23.33
2022-12-31T06:30:12.035Z,21.93
2022-12-31T06:32:40.699Z,24.37
2022-12-31T06:35:08.137Z,23.27
2022-12-31T06:37:35.442Z,21.23
2022-12-31T06:40:02.732Z,24.63
2022-12-31T06:42:30.945Z,26.23
2022-12-31T06:44:59.055Z,28.50
2022-12-31T06:47:26.634Z,22.33
2022-12-31T06:49:53.773Z,24.70
2022-12-31T06:52:21.394Z,29.47
2022-12-31T06:54:48.745Z,27.03
2022-12-31T06:57:16.151Z,28.07
2022-12-31T06:59:44.737Z,25.13
2022-12-31T07:02:22.463Z,31.27
2022-12-31T07:04:55.926Z,25.93
2022-12-31T07:07:32.432Z,21.83
2022-12-31T07:09:59.566Z,22.93
2022-12-31T07:12:45.555Z,29.17
2022-12-31T07:15:17.143Z,31.03
2022-12-31T07:18:07.310Z,27.30
2022-12-31T07:20:34.699Z,28.90
2022-12-31T07:23:02.061Z,23.23
2022-12-31T07:25:29.432Z,25.57
2022-12-31T07:28:27.579Z,27.93
2022-12-31T07:31:00.934Z,24.83
2022-12-31T07:33:30.938Z,24.17
2022-12-31T07:36:04.183Z,28.87
2022-12-31T07:38:50.067Z,32.37
2022-12-31T07:41:35.544Z,22.70
2022-12-31T07:44:08.743Z,31.03
2022-12-31T07:46:55.569Z,24.30
2022-12-31T07:49:23.375Z,24.60
2022-12-31T07:51:50.878Z,26.97
2022-12-31T07:54:18.252Z,27.50
2022-12-31T07:56:45.754Z,27.30
2022-12-31T07:59:24.483Z,23.50
2022-12-31T08:02:13.723Z,26.33
2022-12-31T08:04:50.398Z,26.90
2022-12-31T08:07:17.578Z,27.80
2022-12-31T08:09:52.792Z,24.70
2022-12-31T08:12:20.815Z,30.27
2022-12-31T08:14:48.740Z,29.20
2022-12-31T08:17:16.829Z,30.90
2022-12-31T08:19:45.764Z,21.97
2022-12-31T08:22:37.749Z,26.57
2022-12-31T08:25:13.624Z,25.63
2022-12-31T08:27:47.023Z,34.27
2022-12-31T08:30:15.613Z,24.40
2022-12-31T08:32:49.487Z,28.57
2022-12-31T08:35:33.829Z,31.20
2022-12-31T08:38:21.750Z,24.70
2022-12-31T08:41:07.234Z,29.70
2022-12-31T08:43:34.387Z,26.37
2022-12-31T08:46:01.798Z,24.80
2022-12-31T08:48:37.271Z,26.57
2022-12-31T08:51:04.583Z,35.30
2022-12-31T08:53:32.068Z,25.57
2022-12-31T08:56:22.423Z,24.83
2022-12-31T08:58:58.875Z,29.57
2022-12-31T09:01:28.924Z,32.53
2022-12-31T09:03:59.092Z,29.77
2022-12-31T09:06:26.509Z,27.47
2022-12-31T09:08:53.649Z,32.13
2022-12-31T09:11:26.211Z,29.53
2022-12-31T09:13:59.361Z,21.50
2022-12-31T09:16:29.531Z,27.40
2022-12-31T09:18:56.735Z,30.37
2022-12-31T09:21:23.965Z,26.60
2022-12-31T09:23:51.318Z,25.00
2022-12-31T09:26:27.552Z,26.90
2022-12-31T09:29:00.338Z,26.27
2022-12-31T09:31:27.558Z,23.77
2022-12-31T09:34:07.425Z,31.03
2022-12-31T09:36:41.108Z,31.67
2022-12-31T09:39:14.081Z,29.17
2022-12-31T09:42:01.658Z,30.03
2022-12-31T09:44:35.129Z,30.80
2022-12-31T09:47:21.213Z,25.10
2022-12-31T09:49:48.319Z,27.50
2022-12-31T09:52:37.072Z,29.03
2022-12-31T09:55:13.124Z,31.73
2022-12-31T09:57:42.152Z,35.40
2022-12-31T10:00:23.235Z,29.73
2022-12-31T10:03:26.143Z,29.53
2022-12-31T10:06:12.212Z,32.83
2022-12-31T10:08:42.411Z,32.77
2022-12-31T10:11:20.377Z,29.50
2022-12-31T10:14:06.340Z,35.70
2022-12-31T10:16:42.725Z,26.73
2022-12-31T10:19:28.769Z,30.57
2022-12-31T10:22:14.718Z,31.63
2022-12-31T10:24:41.931Z,34.57
2022-12-31T10:27:09.071Z,34.00
2022-12-31T10:29:44.736Z,35.30
2022-12-31T10:32:23.747Z,27.43
2022-12-31T10:35:13.969Z,34.67
2022-12-31T10:37:41.097Z,32.73
2022-12-31T10:40:08.295Z,28.73
2022-12-31T10:42:54.032Z,29.50
2022-12-31T10:45:33.457Z,29.67
2022-12-31T10:48:00.657Z,32.83
2022-12-31T10:50:27.796Z,31.40
2022-12-31T10:53:05.429Z,37.57
2022-12-31T10:55:35.666Z,29.27
2022-12-31T10:58:04.560Z,34.77
2022-12-31T11:00:36.141Z,39.27
2022-12-31T11:03:28.824Z,31.80
2022-12-31T11:06:08.941Z,30.97
2022-12-31T11:08:54.864Z,37.33
2022-12-31T11:12:00.451Z,34.27
2022-12-31T11:14:46.079Z,29.23
2022-12-31T11:17:25.060Z,35.47
2022-12-31T11:20:04.209Z,35.83
2022-12-31T11:22:31.483Z,37.50
2022-12-31T11:25:13.983Z,30.93
2022-12-31T11:27:49.559Z,35.70
2022-12-31T11:30:19.844Z,40.17
2022-12-31T11:32:57.957Z,36.77
2022-12-31T11:35:43.930Z,47.07
2022-12-31T11:38:18.899Z,41.63
2022-12-31T11:40:54.155Z,30.03
2022-12-31T11:43:24.664Z,39.07
2022-12-31T11:46:04.971Z,33.60
2022-12-31T11:48:32.801Z,37.73
2022-12-31T11:51:02.998Z,35.77
2022-12-31T11:53:30.937Z,37.23
2022-12-31T11:56:08.637Z,33.97
2022-12-31T11:58:35.816Z,32.50
2022-12-31T12:01:02.975Z,30.07
2022-12-31T12:03:30.452Z,37.90
2022-12-31T12:05:58.151Z,33.63
2022-12-31T12:08:29.569Z,34.40
2022-12-31T12:11:01.847Z,38.97
2022-12-31T12:13:29.053Z,37.37
2022-12-31T12:15:58.112Z,48.03
2022-12-31T12:18:30.660Z,35.33
2022-12-31T12:21:07.571Z,38.70
2022-12-31T12:23:34.899Z,35.03
2022-12-31T12:26:02.334Z,37.50
2022-12-31T12:28:30.849Z,32.70
2022-12-31T12:30:59.752Z,32.13
2022-12-31T12:33:28.351Z,33.37
2022-12-31T12:36:06.278Z,29.23
2022-12-31T12:38:33.453Z,36.97
2022-12-31T12:41:01.815Z,31.93
2022-12-31T12:43:30.549Z,35.30
2022-12-31T12:46:18.905Z,37.77
2022-12-31T12:48:47.763Z,34.37
2022-12-31T12:51:21.743Z,39.23
2022-12-31T12:53:59.167Z,33.30
2022-12-31T12:56:45.522Z,35.00
2022-12-31T12:59:34.859Z,33.80
2022-12-31T13:02:22.375Z,40.67
2022-12-31T13:04:55.450Z,37.00
2022-12-31T13:07:28.715Z,35.63
2022-12-31T13:10:14.751Z,33.93
2022-12-31T13:13:21.985Z,32.80
2022-12-31T13:15:32.270Z,30.57
2022-12-31T13:18:19.747Z,24.93
2022-12-31T13:20:55.944Z,34.73
2022-12-31T13:23:23.058Z,38.73
2022-12-31T13:26:09.062Z,31.93
2022-12-31T13:28:38.941Z,30.57
2022-12-31T13:31:09.375Z,27.40
2022-12-31T13:33:49.679Z,32.83
2022-12-31T13:36:18.300Z,28.40
2022-12-31T13:39:02.930Z,32.00
2022-12-31T13:41:33.553Z,34.90
2022-12-31T13:44:09.847Z,29.27
2022-12-31T13:47:15.123Z,31.77
2022-12-31T13:49:50.783Z,29.73
2022-12-31T13:52:33.283Z,28.20
2022-12-31T13:55:15.561Z,33.97
2022-12-31T13:57:42.716Z,25.40
2022-12-31T14:00:19.856Z,26.10
2022-12-31T14:03:05.181Z,27.10
2022-12-31T14:05:38.511Z,27.57
2022-12-31T14:08:06.485Z,26.00
2022-12-31T14:10:46.018Z,23.07
2022-12-31T14:13:22.859Z,27.77
2022-12-31T14:16:11.678Z,22.60
2022-12-31T14:18:38.947Z,21.93
2022-12-31T14:21:26.331Z,24.70
2022-12-31T14:24:00.164Z,28.60
2022-12-31T14:26:29.605Z,20.00
2022-12-31T14:28:59.790Z,27.97
2022-12-31T14:31:39.047Z,18.00
2022-12-31T14:34:06.177Z,22.20
2022-12-31T14:36:41.479Z,22.40
2022-12-31T14:39:17.217Z,23.87
2022-12-31T14:42:04.615Z,17.70
2022-12-31T14:44:50.726Z,19.33
2022-12-31T14:47:30.256Z,22.57
2022-12-31T14:50:15.058Z,21.00
2022-12-31T14:52:48.310Z,19.83
2022-12-31T14:55:15.413Z,24.27
2022-12-31T14:58:17.081Z,24.40
2022-12-31T15:00:39.551Z,18.60
2022-12-31T15:03:08.928Z,19.30
2022-12-31T15:05:37.326Z,20.70
2022-12-31T15:08:04.491Z,23.50
2022-12-31T15:10:48.171Z,23.77
2022-12-31T15:13:34.172Z,22.47
2022-12-31T15:16:20.320Z,19.33
2022-12-31T15:18:47.520Z,20.63
2022-12-31T15:21:30.433Z,16.03
2022-12-31T15:23:57.734Z,17.37
2022-12-31T15:26:26.295Z,18.27
2022-12-31T15:29:06.806Z,15.10
2022-12-31T15:31:35.584Z,20.02
2022-12-31T15:34:04.396Z,16.80
2022-12-31T15:36:35.974Z,19.77
2022-12-31T15:39:12.389Z,20.10
2022-12-31T15:42:02.914Z,19.50
2022-12-31T15:44:46.294Z,22.63
2022-12-31T15:47:18.290Z,19.07
2022-12-31T15:49:47.569Z,16.33
2022-12-31T15:52:18.161Z,19.37
2022-12-31T15:54:46.449Z,18.37
2022-12-31T15:57:38.462Z,22.20
2022-12-31T16:00:07.948Z,18.03
2022-12-31T16:02:35.578Z,14.43
2022-12-31T16:05:03.024Z,19.00
2022-12-31T16:07:30.157Z,21.27
2022-12-31T16:09:59.519Z,17.80
2022-12-31T16:12:33.108Z,15.73
2022-12-31T16:15:01.722Z,19.03
2022-12-31T16:17:33.518Z,17.50
2022-12-31T16:20:01.561Z,13.47
2022-12-31T16:22:30.264Z,14.67
2022-12-31T16:27:45.813Z,15.40
2022-12-31T16:30:19.852Z,15.07
2022-12-31T16:32:48.230Z,15.23
2022-12-31T16:35:32.244Z,15.57
2022-12-31T16:38:08.766Z,13.37
2022-12-31T16:40:36.327Z,15.53
2022-12-31T16:43:03.468Z,14.63
2022-12-31T16:45:35.448Z,14.90
2022-12-31T16:48:18.762Z,17.83
2022-12-31T16:50:47.653Z,14.17
2022-12-31T16:53:17.552Z,15.67
2022-12-31T16:55:50.919Z,17.03
2022-12-31T16:58:20.104Z,15.17
2022-12-31T17:00:48.576Z,20.43
2022-12-31T17:03:24.104Z,15.73
2022-12-31T17:06:04.104Z,16.33
2022-12-31T17:08:42.433Z,20.30
2022-12-31T17:11:24.947Z,18.33
2022-12-31T17:13:56.190Z,17.80
2022-12-31T17:16:23.569Z,17.23
2022-12-31T17:18:51.355Z,17.90
2022-12-31T17:21:18.631Z,18.23
2022-12-31T17:23:51.460Z,18.27
2022-12-31T17:26:23.620Z,17.60
2022-12-31T17:28:51.877Z,17.30
2022-12-31T17:31:37.730Z,18.30
2022-12-31T17:34:07.007Z,19.63
2022-12-31T17:36:34.175Z,16.67
2022-12-31T17:39:21.769Z,20.77
2022-12-31T17:41:50.181Z,16.67
2022-12-31T17:44:26.328Z,20.50
2022-12-31T17:46:53.936Z,19.63
2022-12-31T17:49:27.101Z,19.97
2022-12-31T17:51:54.255Z,16.20
2022-12-31T17:54:21.443Z,14.73
2022-12-31T17:56:49.104Z,17.53
2022-12-31T17:59:21.434Z,17.70
2022-12-31T18:01:49.092Z,17.97
2022-12-31T18:04:17.444Z,14.93
2022-12-31T18:06:44.775Z,16.80
2022-12-31T18:09:13.237Z,17.07
2022-12-31T18:11:40.925Z,13.40
2022-12-31T18:14:08.227Z,18.67
2022-12-31T18:16:35.716Z,20.70
2022-12-31T18:19:02.954Z,15.13
2022-12-31T18:21:32.544Z,14.60
2022-12-31T18:26:27.127Z,15.90
2022-12-31T18:28:54.278Z,18.10
2022-12-31T18:31:28.628Z,21.90
2022-12-31T18:33:57.172Z,13.40
2022-12-31T18:36:24.804Z,13.93
2022-12-31T18:38:52.026Z,14.33
2022-12-31T18:41:28.929Z,16.57
2022-12-31T18:43:56.113Z,16.37
2022-12-31T18:46:24.553Z,14.50
2022-12-31T18:48:52.095Z,17.53
2022-12-31T18:51:31.021Z,14.13
2022-12-31T18:53:58.561Z,14.40
2022-12-31T18:56:25.766Z,15.97
2022-12-31T18:58:53.156Z,13.10
2022-12-31T19:01:36.099Z,14.57
2022-12-31T19:04:04.501Z,15.90
2022-12-31T19:06:31.804Z,14.47
2022-12-31T19:09:00.815Z,13.13
2022-12-31T19:11:28.456Z,13.77
2022-12-31T19:13:55.617Z,12.10
2022-12-31T19:16:22.798Z,14.60
2022-12-31T19:18:50.761Z,15.40
2022-12-31T19:21:19.144Z,12.13
2022-12-31T19:23:46.665Z,12.57
2022-12-31T19:26:17.853Z,15.27
2022-12-31T19:28:46.125Z,13.17
2022-12-31T19:31:13.776Z,12.27
2022-12-31T19:33:41.116Z,12.40
2022-12-31T19:36:14.267Z,13.57
2022-12-31T19:38:41.481Z,13.23
2022-12-31T19:41:14.123Z,12.00
2022-12-31T19:43:41.532Z,12.87
2022-12-31T19:46:11.790Z,18.40
2022-12-31T19:48:38.957Z,9.20
2022-12-31T19:51:08.916Z,14.27
2022-12-31T19:53:36.373Z,14.23
2022-12-31T19:56:03.599Z,13.20
2022-12-31T19:58:30.773Z,17.13
2022-12-31T20:01:02.641Z,11.13
2022-12-31T20:03:31.683Z,13.43
2022-12-31T20:06:03.118Z,16.37
2022-12-31T20:08:30.358Z,14.93
2022-12-31T20:10:58.969Z,10.03
2022-12-31T20:13:29.199Z,9.87
2022-12-31T20:15:56.330Z,13.33
2022-12-31T20:18:23.689Z,10.93
2022-12-31T20:20:55.810Z,11.67
2022-12-31T20:23:23.309Z,9.93
2022-12-31T20:25:59.821Z,13.07
2022-12-31T20:28:27.571Z,11.90
2022-12-31T20:30:54.790Z,11.00
2022-12-31T20:33:22.451Z,13.30
2022-12-31T20:35:49.664Z,13.20
2022-12-31T20:38:16.796Z,14.60
2022-12-31T20:40:46.875Z,10.13
2022-12-31T20:43:14.490Z,10.30
2022-12-31T20:45:42.242Z,11.27
2022-12-31T20:48:09.507Z,13.43
2022-12-31T20:50:36.976Z,10.50
2022-12-31T20:53:04.165Z,12.40
2022-12-31T20:55:32.262Z,10.63
2022-12-31T20:58:00.520Z,11.60
2022-12-31T21:00:27.688Z,10.40
2022-12-31T21:03:04.955Z,15.47
2022-12-31T21:05:35.717Z,15.83
2022-12-31T21:08:03.018Z,16.43
2022-12-31T21:10:30.153Z,14.23
2022-12-31T21:12:57.291Z,12.50
2022-12-31T21:15:24.460Z,16.13
2022-12-31T21:17:51.661Z,12.30
2022-12-31T21:20:18.857Z,13.70
2022-12-31T21:22:45.981Z,12.93
2022-12-31T21:25:13.114Z,16.43
2022-12-31T21:27:40.255Z,13.10
2022-12-31T21:30:23.177Z,13.90
2022-12-31T21:32:50.336Z,14.10
2022-12-31T21:38:06.187Z,14.50
2022-12-31T21:40:33.735Z,15.10
2022-12-31T21:43:00.899Z,15.53
2022-12-31T21:45:28.113Z,15.57
2022-12-31T21:48:13.950Z,15.67
2022-12-31T21:50:41.102Z,13.17
2022-12-31T21:53:08.220Z,17.10
2022-12-31T21:55:57.268Z,14.80
2022-12-31T21:58:26.344Z,17.17
2022-12-31T22:01:13.292Z,16.50
2022-12-31T22:03:40.684Z,17.43
2022-12-31T22:06:12.458Z,19.83
2022-12-31T22:08:40.663Z,15.57
2022-12-31T22:11:08.317Z,19.60
2022-12-31T22:13:35.710Z,15.73
2022-12-31T22:16:05.751Z,15.57
2022-12-31T22:18:35.013Z,18.93
2022-12-31T22:21:03.849Z,17.57
2022-12-31T22:23:31.420Z,14.50
2022-12-31T22:25:58.644Z,19.73
2022-12-31T22:28:41.366Z,20.17
2022-12-31T22:31:16.083Z,17.77
2022-12-31T22:33:43.969Z,18.27
2022-12-31T22:36:12.787Z,18.10
2022-12-31T22:38:39.920Z,16.13
2022-12-31T22:41:08.372Z,16.60
2022-12-31T22:43:37.098Z,15.00
2022-12-31T22:46:10.346Z,14.50
2022-12-31T22:48:37.895Z,22.33
2022-12-31T22:51:05.211Z,18.53
2022-12-31T22:53:32.671Z,16.77
2022-12-31T22:55:59.864Z,20.07
2022-12-31T22:58:27.068Z,25.77
2022-12-31T23:00:54.454Z,34.10
2022-12-31T23:03:21.792Z,35.70
2022-12-31T23:05:52.645Z,77.90
2022-12-31T23:08:23.264Z,66.97
2022-12-31T23:11:01.365Z,55.43
2022-12-31T23:13:50.895Z,46.73
2022-12-31T23:16:37.409Z,40.83
2022-12-31T23:19:23.761Z,50.13
2022-12-31T23:22:09.556Z,61.90
2022-12-31T23:24:36.927Z,65.43
2022-12-31T23:27:04.203Z,69.47
2022-12-31T23:29:31.389Z,80.47
2022-12-31T23:31:58.647Z,83.63
2022-12-31T23:34:25.834Z,93.47
2022-12-31T23:36:53.012Z,87.97
2022-12-31T23:39:20.252Z,78.60
2022-12-31T23:41:47.411Z,80.87
2022-12-31T23:44:14.671Z,75.80
2022-12-31T23:46:44.178Z,76.50
2022-12-31T23:49:12.222Z,70.93
2022-12-31T23:51:40.247Z,67.77
2022-12-31T23:54:07.811Z,61.43
2022-12-31T23:56:34.987Z,58.47
2022-12-31T23:59:02.123Z,52.60
